Rib Falls, Wisconsin
Current Conditions -  °F | °C
As of 9:15 PM on Thursday 18 Dec 2014 (Local Time) from KCWA Reporting Station
Clear Clear  
Wind Chill: 15°   Ceiling: Unl
Heat Index: 21°   Visibility: 10mi
Dew Point: 19°   Wind: 5mph
Humidity: 93%   Direction: 350°N
Pressure: 30.24"   Gusts: NA
Location:  44.8973°N, 90.0113°W
Report Text: KCWA 190315Z AUTO 35004KT 10SM CLR M06/M07 A3024 RMK AO2
Loading
Personal Weather Stations






























Interactive Weather Map New forecast layout! Learn more

10-Day Weather Forecast

Advertisements
Track Severe Weather on mobile